Time;durP1;ratioP1;P1;durP2;ratioP2;P2;SDS_P1;SDS_P2;PMS_P1;PMS_P2;Temp;Humidity;BMP_temperature;BMP_pressure;BME280_temperature;BME280_humidity;BME280_pressure;Samples;Min_cycle;Max_cycle;Signal;HPM_P1;HPM_P2
2022/11/05 00:09:31;;;;;;;22.50;13.60;;;13.90;54.10;;;;;;5032439;28;20672;-43
2022/11/05 00:17:38;;;;;;;16.02;12.00;;;13.90;54.10;;;;;;5031503;28;20213;-43
2022/11/05 00:20:05;;;;;;;14.85;8.88;;;13.90;54.00;;;;;;5032385;28;20224;-43
2022/11/05 00:25:16;;;;;;;15.98;10.18;;;14.00;53.90;;;;;;5032288;28;20204;-43
2022/11/05 00:27:50;;;;;;;18.70;10.82;;;14.00;54.00;;;;;;5034582;28;20177;-44
2022/11/05 00:30:19;;;;;;;14.23;10.82;;;13.90;54.30;;;;;;5036644;28;20284;-44
2022/11/05 00:32:46;;;;;;;18.17;12.50;;;14.00;53.90;;;;;;5036592;28;20224;-44
2022/11/05 00:35:13;;;;;;;16.70;10.95;;;13.90;54.00;;;;;;5036656;28;20197;-43
2022/11/05 00:37:38;;;;;;;14.02;10.23;;;14.00;54.00;;;;;;5036477;28;20169;-43
2022/11/05 00:40:06;;;;;;;13.10;9.27;;;13.90;54.00;;;;;;5036059;28;20258;-43
2022/11/05 00:45:16;;;;;;;15.68;10.95;;;13.90;54.10;;;;;;5036373;28;20285;-43
2022/11/05 00:50:27;;;;;;;15.30;11.77;;;13.90;54.20;;;;;;5038672;28;20599;-44
2022/11/05 00:53:00;;;;;;;19.13;11.60;;;14.00;54.10;;;;;;5042567;28;20226;-44
2022/11/05 00:55:27;;;;;;;18.63;11.55;;;13.90;54.10;;;;;;5043889;28;20202;-43
2022/11/05 00:57:53;;;;;;;23.35;14.80;;;14.00;54.10;;;;;;5044903;28;20174;-43
2022/11/05 01:00:20;;;;;;;19.45;14.43;;;14.00;54.00;;;;;;5044059;28;20174;-43
2022/11/05 01:02:46;;;;;;;21.65;14.43;;;14.00;53.90;;;;;;5043160;28;20174;-42
2022/11/05 01:05:12;;;;;;;17.07;12.77;;;14.00;54.00;;;;;;5041427;28;20580;-43
2022/11/05 01:07:38;;;;;;;18.10;11.15;;;14.00;53.90;;;;;;5035879;28;20942;-43
2022/11/05 01:10:04;;;;;;;18.30;12.30;;;13.90;54.00;;;;;;5035808;28;20197;-45
2022/11/05 01:12:31;;;;;;;18.02;12.10;;;13.90;54.90;;;;;;5035925;28;20174;-43
2022/11/05 01:14:57;;;;;;;18.75;12.55;;;14.00;54.10;;;;;;5035592;28;20596;-43
2022/11/05 01:17:22;;;;;;;20.90;12.65;;;14.00;54.10;;;;;;5034786;28;20257;-42
2022/11/05 01:19:48;;;;;;;19.50;13.40;;;14.00;54.10;;;;;;5035470;28;20178;-44
2022/11/05 01:22:15;;;;;;;20.00;13.27;;;14.00;54.00;;;;;;5035432;28;20174;-43
2022/11/05 01:24:40;;;;;;;19.67;15.00;;;14.00;54.00;;;;;;5035352;28;20680;-44
2022/11/05 01:27:06;;;;;;;18.00;12.33;;;14.00;54.00;;;;;;5034949;28;20178;-44
2022/11/05 01:29:32;;;;;;;28.50;17.07;;;14.00;54.10;;;;;;5035206;28;20584;-43
2022/11/05 01:31:57;;;;;;;21.97;14.47;;;14.00;54.00;;;;;;5035443;28;20652;-43
2022/11/05 01:34:23;;;;;;;25.60;14.90;;;14.00;54.00;;;;;;5035262;28;20276;-43
2022/11/05 01:36:49;;;;;;;18.47;13.47;;;14.00;54.00;;;;;;5034280;28;20170;-43
2022/11/05 01:39:15;;;;;;;17.93;13.67;;;14.00;54.00;;;;;;5035355;28;20586;-43
2022/11/05 01:41:40;;;;;;;19.53;13.83;;;14.00;54.00;;;;;;5035381;28;20186;-43
2022/11/05 01:44:46;;;;;;;24.13;13.90;;;14.00;53.90;;;;;;5034930;28;20424;-43
2022/11/05 01:47:32;;;;;;;19.38;14.48;;;14.00;53.90;;;;;;5034123;28;20545;-43
2022/11/05 01:50:02;;;;;;;19.02;12.57;;;13.90;54.00;;;;;;5024180;28;20597;-44
2022/11/05 01:52:31;;;;;;;22.45;14.18;;;13.90;54.20;;;;;;5034865;28;20170;-44
2022/11/05 01:54:57;;;;;;;19.83;14.30;;;13.80;54.20;;;;;;5034474;28;20284;-43
2022/11/05 01:57:23;;;;;;;23.05;13.35;;;13.90;54.40;;;;;;5034267;28;20166;-43
2022/11/05 01:59:54;;;;;;;20.98;12.48;;;13.90;54.50;;;;;;5034913;28;20261;-42
2022/11/05 02:02:20;;;;;;;16.40;11.75;;;13.90;54.50;;;;;;5034770;28;20194;-43
2022/11/05 02:04:53;;;;;;;18.65;12.85;;;13.90;54.50;;;;;;5034484;28;20285;-43
2022/11/05 02:07:20;;;;;;;17.38;11.30;;;13.90;54.50;;;;;;5033995;28;20162;-43
2022/11/05 02:09:55;;;;;;;15.85;11.82;;;13.90;54.30;;;;;;5034736;28;20220;-44
2022/11/05 02:12:21;;;;;;;14.05;10.60;;;13.90;54.30;;;;;;5034606;28;20177;-43
2022/11/05 02:14:47;;;;;;;18.77;12.35;;;13.90;54.40;;;;;;5034637;28;20658;-44
2022/11/05 02:17:25;;;;;;;15.30;10.83;;;13.80;54.30;;;;;;5033729;28;20257;-44
2022/11/05 02:20:02;;;;;;;14.75;11.70;;;13.80;54.30;;;;;;5034629;28;20333;-43
2022/11/05 02:22:40;;;;;;;18.50;11.90;;;13.80;54.20;;;;;;5034268;28;20216;-43
2022/11/05 02:25:40;;;;;;;14.85;10.50;;;13.80;54.30;;;;;;5033970;28;20248;-43
2022/11/05 02:28:43;;;;;;;17.55;10.65;;;13.80;54.10;;;;;;5034526;28;20265;-43
2022/11/05 02:31:29;;;;;;;17.02;11.65;;;13.90;54.20;;;;;;5033943;28;20247;-43
2022/11/05 02:34:00;;;;;;;19.52;11.90;;;13.90;54.30;;;;;;5003327;28;20202;-44
2022/11/05 02:36:29;;;;;;;14.63;10.27;;;13.80;54.30;;;;;;5033337;28;20660;-43
2022/11/05 02:39:16;;;;;;;17.48;12.90;;;13.80;54.30;;;;;;5033939;28;20182;-43
2022/11/05 02:41:54;;;;;;;20.15;11.30;;;13.80;54.30;;;;;;5033940;28;20146;-43
2022/11/05 02:44:22;;;;;;;14.68;10.93;;;13.80;54.40;;;;;;5033704;28;20194;-43
2022/11/05 02:47:23;;;;;;;18.23;11.82;;;13.80;54.50;;;;;;5033596;28;20181;-43
2022/11/05 02:50:09;;;;;;;18.50;10.93;;;13.90;54.50;;;;;;4978808;28;20206;-44
2022/11/05 02:52:56;;;;;;;30.48;13.32;;;13.80;54.20;;;;;;5034018;28;20268;-44
2022/11/05 02:55:43;;;;;;;17.48;11.48;;;13.90;54.40;;;;;;5033210;28;20292;-43
2022/11/05 02:58:10;;;;;;;17.13;11.10;;;13.90;54.40;;;;;;5033829;28;20170;-44
2022/11/05 03:00:51;;;;;;;19.65;11.85;;;13.80;54.40;;;;;;5033711;28;20519;-43
2022/11/05 03:03:37;;;;;;;18.27;10.85;;;13.90;55.20;;;;;;5033572;28;20162;-43
2022/11/05 03:06:38;;;;;;;15.45;11.02;;;13.90;54.50;;;;;;5032619;28;20181;-43
2022/11/05 03:09:25;;;;;;;16.15;11.65;;;13.90;54.40;;;;;;5033375;28;20174;-43
2022/11/05 03:12:16;;;;;;;15.48;10.80;;;13.90;54.30;;;;;;5033468;28;20200;-43
2022/11/05 03:15:15;;;;;;;15.30;10.55;;;13.90;54.50;;;;;;5033132;28;20218;-43
2022/11/05 03:17:47;;;;;;;16.13;10.48;;;13.90;54.40;;;;;;5004292;28;20260;-43
2022/11/05 03:20:34;;;;;;;13.60;10.75;;;13.90;54.40;;;;;;5033086;28;20249;-44
2022/11/05 03:23:21;;;;;;;13.95;10.73;;;13.90;54.40;;;;;;5033140;28;20182;-43
2022/11/05 03:25:52;;;;;;;16.52;10.15;;;14.00;54.30;;;;;;5032246;28;20180;-43
2022/11/05 03:28:23;;;;;;;14.70;11.35;;;13.90;54.30;;;;;;5032897;28;20182;-43
2022/11/05 03:30:51;;;;;;;16.02;10.63;;;13.90;54.30;;;;;;5032925;28;20201;-43
2022/11/05 03:33:22;;;;;;;15.05;10.00;;;14.00;54.30;;;;;;5032905;28;20182;-43
2022/11/05 03:35:58;;;;;;;17.27;13.15;;;14.00;54.30;;;;;;5032299;28;20257;-43
2022/11/05 03:38:29;;;;;;;15.95;11.90;;;14.00;54.20;;;;;;5032850;28;20178;-43
2022/11/05 03:40:58;;;;;;;15.48;11.02;;;14.00;54.20;;;;;;5032536;28;20251;-43
2022/11/05 03:43:33;;;;;;;17.77;11.30;;;14.00;54.10;;;;;;5032503;28;20284;-43
2022/11/05 03:46:03;;;;;;;19.05;12.43;;;14.10;54.10;;;;;;5031954;28;20169;-44
2022/11/05 03:48:33;;;;;;;20.00;12.18;;;14.00;54.00;;;;;;5032667;28;20649;-44
2022/11/05 03:51:10;;;;;;;15.93;12.40;;;14.00;54.00;;;;;;5032355;28;20198;-43
2022/11/05 03:53:47;;;;;;;25.83;14.30;;;14.00;54.00;;;;;;5032331;28;20198;-43
2022/11/05 03:56:26;;;;;;;19.33;10.02;;;14.00;54.00;;;;;;5031860;28;20164;-43
2022/11/05 03:58:53;;;;;;;15.32;11.50;;;14.10;54.10;;;;;;5032439;28;20161;-44
2022/11/05 04:01:19;;;;;;;19.80;14.75;;;14.00;53.90;;;;;;5032194;28;20232;-44
2022/11/05 04:03:45;;;;;;;24.57;13.13;;;14.00;53.90;;;;;;5032207;28;20194;-43
2022/11/05 04:14:25;;;;;;;22.05;13.77;;;14.00;54.00;;;;;;5032682;28;20251;-43
2022/11/05 04:17:07;;;;;;;25.92;14.30;;;13.90;54.10;;;;;;5032520;28;20185;-43
2022/11/05 04:25:08;;;;;;;24.15;15.88;;;14.00;54.10;;;;;;5040437;28;20236;-43
2022/11/05 04:27:34;;;;;;;25.90;14.67;;;14.00;54.10;;;;;;5022331;28;20174;-43
2022/11/05 04:30:18;;;;;;;26.20;15.38;;;14.00;54.10;;;;;;5040275;28;20473;-44
2022/11/05 04:33:02;;;;;;;19.70;14.65;;;14.00;54.00;;;;;;5037295;28;20151;-44
2022/11/05 04:35:31;;;;;;;23.13;15.20;;;14.00;54.00;;;;;;5032621;28;20190;-43
2022/11/05 04:37:56;;;;;;;21.50;13.35;;;14.00;53.90;;;;;;5031993;28;20174;-44
2022/11/05 04:40:23;;;;;;;24.33;15.60;;;14.00;53.80;;;;;;5032183;28;20529;-43
2022/11/05 04:42:49;;;;;;;22.45;13.30;;;14.00;53.80;;;;;;5032016;28;20253;-44
2022/11/05 04:45:14;;;;;;;22.67;14.00;;;14.00;53.70;;;;;;5031737;28;20189;-45
2022/11/05 04:47:40;;;;;;;22.40;14.30;;;14.10;53.80;;;;;;5031420;28;20184;-42
2022/11/05 04:50:08;;;;;;;21.77;13.57;;;14.10;53.90;;;;;;5031844;28;20186;-43
2022/11/05 04:52:34;;;;;;;19.40;14.95;;;14.10;53.80;;;;;;5031866;28;20397;-43
2022/11/05 04:54:59;;;;;;;19.57;14.10;;;14.10;53.70;;;;;;5031529;28;20205;-42
2022/11/05 04:57:25;;;;;;;25.40;16.70;;;14.10;53.70;;;;;;5031278;28;20166;-44
2022/11/05 04:59:51;;;;;;;21.80;13.33;;;14.10;53.70;;;;;;5031648;28;20260;-45
2022/11/05 05:02:16;;;;;;;23.43;16.10;;;14.10;53.60;;;;;;5031957;28;20207;-44
2022/11/05 05:04:42;;;;;;;19.20;13.73;;;14.10;53.60;;;;;;5031556;28;20653;-43
2022/11/05 05:07:08;;;;;;;18.80;14.00;;;14.10;53.50;;;;;;5031382;28;20174;-43
2022/11/05 05:09:33;;;;;;;21.67;13.17;;;14.10;53.40;;;;;;5031765;28;20174;-44
2022/11/05 05:12:01;;;;;;;23.10;16.10;;;14.10;53.50;;;;;;5031659;28;20206;-45
2022/11/05 05:14:27;;;;;;;21.25;13.48;;;14.10;53.40;;;;;;5035150;28;20657;-42
2022/11/05 05:16:52;;;;;;;29.27;15.33;;;14.20;53.40;;;;;;5034939;28;20260;-43
2022/11/05 05:19:18;;;;;;;21.37;13.87;;;14.20;53.40;;;;;;5035328;28;20416;-43
2022/11/05 05:21:44;;;;;;;24.50;16.47;;;14.10;53.40;;;;;;5035401;28;20178;-44
2022/11/05 05:24:12;;;;;;;19.53;12.87;;;14.10;53.40;;;;;;5035474;28;20198;-43
2022/11/05 05:26:41;;;;;;;20.92;14.02;;;14.10;53.30;;;;;;5034552;28;20261;-43
2022/11/05 05:29:07;;;;;;;19.25;13.25;;;14.10;53.20;;;;;;5035159;28;20174;-43
2022/11/05 05:31:33;;;;;;;25.20;13.40;;;14.10;53.30;;;;;;5035252;28;20198;-42
2022/11/05 05:33:59;;;;;;;18.60;12.77;;;14.10;53.30;;;;;;5035179;28;20201;-43
2022/11/05 05:36:24;;;;;;;18.27;14.03;;;14.10;53.30;;;;;;5034435;28;20413;-43
2022/11/05 05:38:51;;;;;;;22.90;15.10;;;14.10;53.30;;;;;;5034963;28;20455;-42
2022/11/05 05:41:17;;;;;;;19.27;13.82;;;14.00;53.20;;;;;;5034882;28;20908;-43
2022/11/05 05:43:42;;;;;;;18.60;13.53;;;14.00;53.30;;;;;;5035099;28;20206;-43
2022/11/05 05:46:14;;;;;;;19.60;13.90;;;14.00;53.60;;;;;;5034125;28;20633;-43
2022/11/05 05:48:40;;;;;;;24.48;14.88;;;14.10;53.40;;;;;;5034943;28;20412;-43
2022/11/05 05:51:08;;;;;;;19.63;12.85;;;14.00;53.20;;;;;;5034862;28;20202;-43
2022/11/05 05:53:34;;;;;;;17.92;13.50;;;14.00;53.10;;;;;;5034631;28;20277;-43
2022/11/05 05:56:00;;;;;;;20.98;13.55;;;14.00;53.20;;;;;;5034036;28;20500;-44
2022/11/05 05:58:34;;;;;;;16.17;12.40;;;14.00;53.20;;;;;;5034692;28;20261;-44
2022/11/05 06:01:05;;;;;;;19.15;13.30;;;14.00;53.20;;;;;;5034810;28;20166;-42
2022/11/05 06:03:31;;;;;;;21.30;15.05;;;14.00;53.20;;;;;;5034385;28;20221;-44
2022/11/05 06:06:04;;;;;;;20.40;12.53;;;14.00;53.30;;;;;;5033908;28;20166;-43
2022/11/05 06:08:31;;;;;;;22.92;13.70;;;14.00;53.30;;;;;;5034285;28;20409;-43
2022/11/05 06:10:57;;;;;;;20.92;13.75;;;13.90;53.30;;;;;;5034472;28;20232;-42
2022/11/05 06:13:23;;;;;;;20.05;13.68;;;13.90;53.40;;;;;;5034182;28;20245;-41
2022/11/05 06:15:49;;;;;;;21.20;13.75;;;14.00;53.20;;;;;;5033590;28;20220;-41
2022/11/05 06:18:15;;;;;;;19.47;12.27;;;14.00;53.20;;;;;;5034564;28;20174;-43
2022/11/05 06:20:41;;;;;;;20.90;13.53;;;14.00;53.20;;;;;;5034109;28;20186;-44
2022/11/05 06:23:07;;;;;;;21.70;13.63;;;14.00;53.20;;;;;;5034267;28;20661;-42
2022/11/05 06:25:32;;;;;;;20.77;14.70;;;14.00;53.20;;;;;;5033677;28;20637;-41
2022/11/05 06:27:58;;;;;;;21.07;12.60;;;14.00;53.20;;;;;;5034136;28;20174;-43
2022/11/05 06:30:24;;;;;;;30.40;14.60;;;14.00;53.10;;;;;;5034061;28;20206;-44
2022/11/05 06:32:50;;;;;;;19.07;11.97;;;14.10;53.20;;;;;;5033911;28;20800;-43
2022/11/05 06:35:16;;;;;;;18.10;14.20;;;14.10;53.10;;;;;;5033753;28;20193;-43
2022/11/05 06:37:42;;;;;;;21.35;12.43;;;14.10;53.20;;;;;;5033405;28;20180;-42
2022/11/05 06:40:08;;;;;;;21.73;13.77;;;14.10;53.10;;;;;;5034082;28;20185;-43
2022/11/05 06:42:34;;;;;;;18.48;12.80;;;14.10;53.00;;;;;;5033733;28;20170;-43
2022/11/05 06:44:59;;;;;;;16.00;11.97;;;14.00;53.00;;;;;;5033496;28;20626;-44
2022/11/05 06:47:25;;;;;;;20.23;14.33;;;14.10;53.20;;;;;;5033037;28;20166;-43
2022/11/05 06:49:51;;;;;;;23.73;14.23;;;14.00;53.10;;;;;;5033535;28;20174;-42
2022/11/05 06:52:17;;;;;;;24.93;14.37;;;14.10;53.20;;;;;;5033352;28;20626;-43
2022/11/05 06:54:43;;;;;;;22.07;12.63;;;14.10;53.20;;;;;;5033332;28;20280;-42
2022/11/05 06:57:10;;;;;;;25.10;17.20;;;14.10;53.20;;;;;;5033050;28;20260;-43
2022/11/05 06:59:40;;;;;;;23.75;14.50;;;14.10;53.10;;;;;;5033355;28;20896;-42
2022/11/05 07:02:10;;;;;;;19.67;15.13;;;14.10;53.20;;;;;;5033514;28;20178;-42
2022/11/05 07:04:36;;;;;;;21.38;14.18;;;14.10;53.20;;;;;;5033269;28;20194;-43
2022/11/05 07:07:01;;;;;;;19.23;14.37;;;14.10;53.20;;;;;;5032565;28;20236;-42
2022/11/05 07:09:28;;;;;;;20.60;14.70;;;14.10;53.20;;;;;;5033186;28;20178;-43
2022/11/05 07:11:53;;;;;;;24.30;16.35;;;14.20;53.20;;;;;;5033093;28;20236;-43
2022/11/05 07:14:19;;;;;;;21.50;12.60;;;14.20;53.30;;;;;;5033032;28;20229;-43
2022/11/05 07:16:45;;;;;;;19.37;13.37;;;14.30;53.20;;;;;;5032500;28;20411;-44
2022/11/05 07:19:11;;;;;;;32.30;15.03;;;14.30;53.10;;;;;;5033237;28;20177;-43
2022/11/05 07:21:36;;;;;;;24.33;15.90;;;14.30;53.20;;;;;;5033422;28;20174;-43
2022/11/05 07:24:02;;;;;;;21.50;13.83;;;14.30;53.20;;;;;;5032936;28;20680;-43
2022/11/05 07:26:28;;;;;;;19.60;13.00;;;14.40;53.20;;;;;;5032354;28;20173;-43
2022/11/05 07:28:54;;;;;;;18.27;12.57;;;14.50;53.10;;;;;;5033204;28;20404;-41
2022/11/05 07:31:20;;;;;;;17.83;10.50;;;14.50;53.00;;;;;;5032720;28;20653;-43
2022/11/05 07:33:46;;;;;;;17.50;11.27;;;14.40;53.00;;;;;;5033048;28;20547;-42
2022/11/05 07:36:11;;;;;;;24.03;13.80;;;14.40;53.00;;;;;;5031768;28;20460;-42
2022/11/05 07:38:37;;;;;;;24.53;12.97;;;14.40;53.00;;;;;;5032764;28;20228;-43
2022/11/05 07:41:03;;;;;;;17.47;12.77;;;14.40;53.00;;;;;;5032897;28;20178;-43
2022/11/05 07:43:29;;;;;;;20.05;13.10;;;14.40;53.00;;;;;;5032823;28;20200;-43
2022/11/05 07:45:55;;;;;;;20.87;12.70;;;14.40;53.20;;;;;;5032389;28;20264;-43
2022/11/05 07:48:20;;;;;;;23.40;13.23;;;14.30;53.10;;;;;;5033201;28;20404;-43
2022/11/05 07:50:50;;;;;;;24.13;14.67;;;14.40;53.00;;;;;;5032790;28;20202;-42
2022/11/05 07:53:16;;;;;;;20.33;12.80;;;14.40;53.10;;;;;;5036041;28;20404;-43
2022/11/05 07:55:44;;;;;;;22.80;14.13;;;14.40;53.10;;;;;;5042522;28;20170;-43
2022/11/05 07:58:10;;;;;;;16.48;12.35;;;14.50;53.30;;;;;;5041608;28;20568;-43
2022/11/05 08:00:36;;;;;;;17.85;13.48;;;14.50;53.20;;;;;;5042666;28;20198;-43
2022/11/05 08:03:06;;;;;;;21.83;12.67;;;14.50;53.10;;;;;;5042316;28;20174;-43
2022/11/05 08:05:35;;;;;;;17.67;12.75;;;14.50;53.10;;;;;;5041768;28;20507;-43
2022/11/05 08:08:01;;;;;;;23.80;15.60;;;14.50;52.80;;;;;;5034028;28;20178;-43
2022/11/05 08:10:27;;;;;;;19.77;13.65;;;14.50;52.70;;;;;;5032636;28;20224;-43
2022/11/05 08:12:54;;;;;;;24.52;14.50;;;14.60;52.80;;;;;;5032606;28;20633;-42
2022/11/05 08:15:20;;;;;;;18.95;12.70;;;14.60;52.80;;;;;;5032308;28;20196;-43
2022/11/05 08:17:45;;;;;;;23.13;12.10;;;14.60;52.30;;;;;;5031974;28;20538;-43
2022/11/05 08:20:12;;;;;;;19.93;11.67;;;14.60;52.50;;;;;;5032646;28;20178;-42
2022/11/05 08:22:47;;;;;;;22.25;13.98;;;14.60;52.10;;;;;;5032014;28;20257;-43
2022/11/05 08:25:13;;;;;;;17.52;12.13;;;14.60;52.40;;;;;;5032494;28;20228;-42
2022/11/05 08:27:39;;;;;;;18.73;10.73;;;14.60;52.40;;;;;;5032265;28;20185;-42
2022/11/05 08:30:07;;;;;;;25.17;12.05;;;14.60;52.10;;;;;;5032467;28;20657;-42
2022/11/05 08:32:33;;;;;;;19.23;12.25;;;14.60;52.00;;;;;;5032072;28;20177;-44
2022/11/05 08:34:58;;;;;;;14.40;10.90;;;14.60;52.20;;;;;;5032706;28;20197;-42
2022/11/05 08:37:24;;;;;;;16.07;11.50;;;14.70;52.50;;;;;;5031516;28;20904;-43
2022/11/05 08:39:50;;;;;;;16.57;10.90;;;14.70;52.60;;;;;;5032731;28;20174;-43
2022/11/05 08:42:15;;;;;;;16.90;11.90;;;14.80;52.60;;;;;;5032211;28;20253;-43
2022/11/05 08:44:41;;;;;;;22.90;11.37;;;14.80;52.40;;;;;;5032174;28;20221;-43
2022/11/05 08:47:07;;;;;;;20.10;12.30;;;14.80;52.10;;;;;;5031715;28;20169;-42
2022/11/05 08:49:33;;;;;;;17.83;9.23;;;14.80;52.00;;;;;;5036259;28;20677;-42
2022/11/05 08:51:58;;;;;;;19.70;11.87;;;14.80;51.70;;;;;;5036095;28;20297;-43
2022/11/05 08:54:24;;;;;;;18.63;11.13;;;14.80;51.70;;;;;;5035640;28;20210;-43
2022/11/05 08:56:50;;;;;;;15.93;10.50;;;14.70;51.70;;;;;;5035649;28;20185;-44
2022/11/05 08:59:16;;;;;;;22.23;9.87;;;14.70;51.70;;;;;;5035787;28;20170;-43
2022/11/05 09:01:41;;;;;;;17.77;11.93;;;14.80;52.10;;;;;;5035495;28;20408;-43
2022/11/05 09:04:07;;;;;;;16.60;11.50;;;14.80;51.90;;;;;;5035738;28;20202;-43
2022/11/05 09:06:33;;;;;;;14.60;10.57;;;14.80;51.50;;;;;;5035180;28;20504;-43
2022/11/05 09:08:59;;;;;;;23.90;11.27;;;14.80;51.60;;;;;;5035468;28;20444;-43
2022/11/05 09:11:24;;;;;;;14.97;10.27;;;14.90;52.20;;;;;;5035811;28;20448;-43
2022/11/05 09:13:50;;;;;;;16.20;10.47;;;14.90;52.10;;;;;;5035510;28;20219;-43
2022/11/05 09:16:24;;;;;;;18.20;10.80;;;15.00;51.80;;;;;;5034804;28;20174;-43
2022/11/05 09:18:50;;;;;;;14.30;10.27;;;15.00;51.40;;;;;;5035514;28;20333;-43
2022/11/05 09:21:18;;;;;;;16.73;10.20;;;15.00;51.50;;;;;;5035328;28;20249;-43
2022/11/05 09:23:45;;;;;;;16.23;10.10;;;15.10;51.70;;;;;;5035172;28;20429;-43
2022/11/05 09:26:11;;;;;;;15.70;10.93;;;15.10;51.70;;;;;;5034513;28;20186;-42
2022/11/05 09:28:37;;;;;;;15.38;11.07;;;15.20;51.60;;;;;;5034982;28;20220;-43
2022/11/05 09:31:08;;;;;;;13.07;10.07;;;15.30;51.50;;;;;;5034430;28;20569;-43
2022/11/05 09:33:36;;;;;;;18.85;11.00;;;15.40;51.60;;;;;;5035563;28;20272;-43
2022/11/05 09:36:03;;;;;;;17.15;11.18;;;15.50;51.50;;;;;;5035032;28;20178;-44
2022/11/05 09:38:30;;;;;;;20.77;9.75;;;15.50;51.40;;;;;;5034863;28;20643;-43
2022/11/05 09:41:07;;;;;;;17.85;11.20;;;15.60;50.60;;;;;;5035038;28;20212;-42
2022/11/05 09:43:40;;;;;;;27.23;13.48;;;15.80;51.00;;;;;;5035139;28;20240;-42
2022/11/05 09:46:18;;;;;;;17.70;10.75;;;16.00;51.00;;;;;;5034536;28;20170;-43
2022/11/05 09:48:48;;;;;;;12.15;9.25;;;16.30;51.40;;;;;;5034762;28;20665;-43
2022/11/05 09:51:15;;;;;;;15.48;10.70;;;16.50;50.80;;;;;;5034817;28;20225;-44
2022/11/05 09:53:42;;;;;;;10.52;8.68;;;16.80;48.70;;;;;;5034658;28;20221;-42
2022/11/05 09:56:25;;;;;;;11.70;8.20;;;17.20;46.70;;;;;;5016401;28;20227;-43
2022/11/05 09:59:02;;;;;;;20.13;8.90;;;17.70;46.70;;;;;;5034341;28;20158;-43
2022/11/05 10:01:34;;;;;;;12.68;7.75;;;18.10;46.00;;;;;;5034490;28;20185;-44
2022/11/05 10:04:06;;;;;;;11.93;6.90;;;18.30;45.90;;;;;;5016543;28;20190;-43
2022/11/05 10:06:32;;;;;;;10.82;6.63;;;18.40;44.60;;;;;;5034090;28;20176;-42
2022/11/05 10:09:34;;;;;;;10.27;6.78;;;18.30;44.50;;;;;;5034544;28;20174;-43
2022/11/05 10:12:09;;;;;;;9.65;6.45;;;18.40;45.30;;;;;;5027236;28;20758;-44
2022/11/05 10:15:09;;;;;;;10.30;7.53;;;18.40;44.60;;;;;;5034098;28;20237;-42
2022/11/05 10:17:37;;;;;;;11.35;6.45;;;18.50;45.30;;;;;;5029654;28;20192;-44
2022/11/05 10:20:15;;;;;;;9.65;6.40;;;18.60;45.30;;;;;;5034074;28;20206;-44
2022/11/05 10:22:41;;;;;;;8.30;5.00;;;18.60;45.40;;;;;;5034179;28;20170;-44
2022/11/05 10:25:19;;;;;;;11.03;6.83;;;18.80;44.50;;;;;;5034203;28;20197;-44
2022/11/05 10:27:54;;;;;;;6.45;5.85;;;19.00;43.00;;;;;;5033660;28;20462;-44
2022/11/05 10:30:20;;;;;;;12.43;6.20;;;19.00;41.50;;;;;;5033895;28;20203;-43
2022/11/05 10:32:48;;;;;;;10.90;5.68;;;19.00;43.00;;;;;;5033937;28;20166;-44
2022/11/05 10:35:17;;;;;;;10.27;5.88;;;18.90;43.10;;;;;;5033820;28;20208;-43
2022/11/05 10:37:50;;;;;;;8.77;6.03;;;19.00;44.40;;;;;;5033415;28;20244;-43
2022/11/05 10:40:34;;;;;;;7.95;5.35;;;19.00;42.20;;;;;;5033980;28;20186;-43
2022/11/05 10:42:59;;;;;;;11.10;5.25;;;19.10;43.30;;;;;;5033959;28;20198;-43
2022/11/05 10:45:34;;;;;;;11.17;5.07;;;19.20;43.40;;;;;;5033356;28;20642;-44
2022/11/05 10:48:06;;;;;;;8.32;5.20;;;19.50;43.40;;;;;;5033515;28;20570;-43
2022/11/05 10:50:32;;;;;;;13.82;7.32;;;19.50;43.00;;;;;;5033593;28;20285;-44
2022/11/05 10:53:14;;;;;;;12.65;5.25;;;19.60;42.90;;;;;;5033688;28;20196;-42
2022/11/05 10:55:46;;;;;;;8.02;4.75;;;20.10;42.40;;;;;;5033011;28;20216;-44
2022/11/05 10:58:12;;;;;;;9.20;5.03;;;20.10;41.60;;;;;;5033658;28;20163;-44
2022/11/05 11:00:38;;;;;;;11.00;4.83;;;20.10;40.70;;;;;;5033444;28;20549;-43
2022/11/05 11:03:25;;;;;;;12.52;5.63;;;20.00;39.10;;;;;;5033422;28;20178;-44
2022/11/05 11:06:17;;;;;;;6.75;4.10;;;19.90;40.70;;;;;;5032586;28;20174;-42
2022/11/05 11:08:45;;;;;;;12.70;6.85;;;19.90;40.80;;;;;;5025629;28;20177;-44
2022/11/05 11:11:23;;;;;;;11.55;3.53;;;19.90;40.30;;;;;;5032561;28;20202;-44
2022/11/05 11:14:13;;;;;;;7.85;3.13;;;19.90;38.00;;;;;;5033019;28;20224;-44
2022/11/05 11:16:50;;;;;;;9.63;3.88;;;19.80;39.50;;;;;;5032812;28;20638;-44
2022/11/05 11:19:30;;;;;;;7.05;4.03;;;19.70;39.30;;;;;;5033061;28;20204;-42
2022/11/05 11:22:02;;;;;;;8.23;2.88;;;19.60;40.10;;;;;;5033045;28;20204;-43
2022/11/05 11:24:29;;;;;;;11.50;4.38;;;19.70;40.60;;;;;;5032988;28;20828;-43
2022/11/05 11:27:02;;;;;;;6.70;3.20;;;19.80;40.30;;;;;;5032483;28;20646;-44
2022/11/05 11:29:30;;;;;;;6.10;3.95;;;19.70;38.10;;;;;;5032987;28;20162;-43
2022/11/05 11:31:57;;;;;;;9.40;4.13;;;19.50;37.50;;;;;;5032819;28;20217;-43
2022/11/05 11:34:30;;;;;;;7.35;4.50;;;19.00;37.30;;;;;;5033473;28;20205;-42
2022/11/05 11:37:28;;;;;;;17.48;4.28;;;19.00;40.20;;;;;;5034565;28;20182;-42
2022/11/05 11:39:58;;;;;;;8.23;3.67;;;19.00;40.20;;;;;;5035702;28;20542;-43
2022/11/05 11:42:31;;;;;;;9.00;3.95;;;19.10;38.00;;;;;;5040799;28;20181;-43
2022/11/05 11:45:03;;;;;;;9.90;3.78;;;19.10;38.40;;;;;;5039739;28;20257;-44
2022/11/05 11:47:29;;;;;;;5.75;3.55;;;19.20;39.20;;;;;;5041558;28;20165;-45
2022/11/05 11:49:57;;;;;;;9.65;3.40;;;19.10;38.60;;;;;;5039215;28;20174;-43
2022/11/05 11:52:32;;;;;;;7.07;3.10;;;19.00;39.70;;;;;;5033416;28;20209;-45
2022/11/05 11:55:10;;;;;;;8.70;2.78;;;19.00;39.60;;;;;;5032218;28;20205;-45
2022/11/05 11:57:44;;;;;;;6.68;2.85;;;18.80;38.50;;;;;;5031993;28;20185;-44
2022/11/05 12:00:10;;;;;;;7.43;3.33;;;18.90;40.10;;;;;;5032312;28;20170;-45
2022/11/05 12:03:03;;;;;;;6.50;3.63;;;18.90;38.90;;;;;;5032922;28;20537;-45
2022/11/05 12:05:44;;;;;;;13.48;4.43;;;19.10;39.40;;;;;;5032167;28;20202;-47
2022/11/05 12:08:28;;;;;;;7.85;3.78;;;19.40;39.80;;;;;;5032147;28;20177;-45
2022/11/05 12:11:16;;;;;;;4.90;2.83;;;19.60;38.80;;;;;;5032061;28;20178;-44
2022/11/05 12:13:41;;;;;;;6.10;2.95;;;19.90;39.60;;;;;;5031962;28;20618;-44
2022/11/05 12:16:31;;;;;;;7.83;2.83;;;20.20;39.60;;;;;;5031478;28;20209;-46
2022/11/05 12:19:38;;;;;;;9.55;2.40;;;20.50;39.90;;;;;;5031991;28;20162;-45
2022/11/05 12:22:16;;;;;;;17.50;2.55;;;20.60;37.90;;;;;;5031923;28;20166;-44
2022/11/05 12:25:14;;;;;;;4.45;2.20;;;20.30;36.40;;;;;;5031767;28;20190;-43
2022/11/05 12:27:48;;;;;;;4.25;1.90;;;20.00;36.20;;;;;;5031338;28;20261;-44
2022/11/05 12:30:17;;;;;;;6.80;2.55;;;19.50;36.20;;;;;;5031817;28;20542;-44
2022/11/05 12:33:00;;;;;;;7.45;2.95;;;19.10;37.40;;;;;;5031870;28;20276;-43
2022/11/05 12:35:45;;;;;;;12.60;2.80;;;18.80;37.50;;;;;;5031907;28;20201;-45
2022/11/05 12:38:38;;;;;;;4.63;2.50;;;18.50;37.70;;;;;;5031838;28;20630;-46
2022/11/05 12:41:28;;;;;;;9.95;2.38;;;18.30;38.60;;;;;;5031840;28;20162;-45
2022/11/05 12:44:13;;;;;;;11.30;2.60;;;18.10;38.80;;;;;;5031712;28;20198;-45
2022/11/05 12:46:44;;;;;;;7.65;2.70;;;18.00;39.30;;;;;;5031072;28;20227;-45
2022/11/05 12:49:22;;;;;;;6.10;2.60;;;17.90;38.80;;;;;;5031964;28;20182;-44
2022/11/05 12:52:00;;;;;;;11.90;2.65;;;17.70;39.30;;;;;;5031631;28;20202;-44
2022/11/05 12:54:38;;;;;;;14.82;3.55;;;17.60;39.00;;;;;;5031577;28;20288;-43
2022/11/05 12:57:09;;;;;;;9.07;3.53;;;17.50;39.40;;;;;;5031087;28;20213;-43
2022/11/05 13:00:01;;;;;;;7.35;3.15;;;17.50;39.90;;;;;;5031979;28;20182;-46
2022/11/05 13:02:44;;;;;;;6.40;3.20;;;17.40;39.70;;;;;;5031427;28;20193;-44
2022/11/05 13:05:18;;;;;;;8.68;3.83;;;17.40;40.50;;;;;;5031630;28;20190;-44
2022/11/05 13:08:10;;;;;;;6.38;2.50;;;17.50;41.20;;;;;;5030874;28;20849;-43
2022/11/05 13:10:44;;;;;;;6.70;3.08;;;17.70;41.30;;;;;;5031566;28;20189;-44
2022/11/05 13:13:31;;;;;;;7.65;2.83;;;17.90;41.70;;;;;;5031655;28;20544;-44
2022/11/05 13:16:21;;;;;;;4.93;2.45;;;18.20;42.30;;;;;;5030750;28;20657;-46
2022/11/05 13:18:51;;;;;;;5.00;2.25;;;18.60;41.70;;;;;;5031451;28;20212;-46
2022/11/05 13:21:22;;;;;;;3.65;2.20;;;19.00;40.50;;;;;;5031560;28;20182;-46
2022/11/05 13:24:16;;;;;;;7.35;2.50;;;19.30;40.20;;;;;;5031288;28;20531;-45
2022/11/05 13:26:51;;;;;;;8.85;2.88;;;19.30;38.70;;;;;;5030968;28;20186;-44
2022/11/05 13:29:31;;;;;;;7.13;2.92;;;19.10;38.60;;;;;;5031346;28;20196;-45